createdAt,value
2019-03-17T00:00:15.461Z,80.80
2019-03-17T00:02:44.503Z,80.60
2019-03-17T00:05:13.661Z,80.90
2019-03-17T00:07:42.771Z,81.00
2019-03-17T00:10:11.750Z,81.00
2019-03-17T00:12:41.027Z,81.30
2019-03-17T00:15:10.191Z,81.00
2019-03-17T00:17:41.713Z,81.20
2019-03-17T00:20:09.961Z,81.20
2019-03-17T00:22:38.994Z,81.40
2019-03-17T00:25:09.835Z,81.50
2019-03-17T00:27:39.116Z,81.70
2019-03-17T00:30:10.681Z,81.40
2019-03-17T00:32:39.675Z,81.70
2019-03-17T00:35:08.881Z,81.80
2019-03-17T00:37:37.923Z,82.00
2019-03-17T00:40:10.448Z,82.50
2019-03-17T00:42:39.368Z,82.50
2019-03-17T00:45:11.542Z,82.70
2019-03-17T00:47:40.691Z,82.70
2019-03-17T00:50:12.851Z,82.60
2019-03-17T00:52:41.773Z,82.60
2019-03-17T00:55:10.938Z,82.60
2019-03-17T00:57:39.762Z,82.70
2019-03-17T01:00:16.577Z,82.90
2019-03-17T01:02:45.625Z,83.00
2019-03-17T01:05:14.913Z,82.90
2019-03-17T01:07:43.943Z,83.20
2019-03-17T01:10:12.866Z,83.10
2019-03-17T01:12:44.742Z,83.10
2019-03-17T01:15:12.767Z,82.80
2019-03-17T01:17:41.917Z,82.80
2019-03-17T01:20:11.442Z,82.90
2019-03-17T01:22:40.476Z,82.70
2019-03-17T01:25:10.047Z,82.10
2019-03-17T01:27:38.915Z,82.20
2019-03-17T01:30:14.022Z,82.10
2019-03-17T01:32:42.883Z,82.10
2019-03-17T01:35:12.039Z,81.60
2019-03-17T01:37:41.201Z,81.60
2019-03-17T01:40:11.210Z,81.30
2019-03-17T01:42:40.365Z,81.50
2019-03-17T01:45:10.128Z,81.70
2019-03-17T01:47:39.287Z,81.50
2019-03-17T01:50:09.534Z,81.20
2019-03-17T01:52:38.585Z,81.20
2019-03-17T01:55:08.216Z,81.60
2019-03-17T01:57:37.269Z,81.30
2019-03-17T02:00:09.187Z,81.30
2019-03-17T02:02:38.463Z,80.90
2019-03-17T02:05:07.746Z,81.30
2019-03-17T02:07:36.907Z,81.20
2019-03-17T02:10:07.266Z,81.40
2019-03-17T02:12:36.306Z,81.20
2019-03-17T02:15:07.743Z,81.70
2019-03-17T02:17:36.791Z,81.10
2019-03-17T02:20:08.352Z,81.10
2019-03-17T02:22:37.392Z,80.70
2019-03-17T02:25:06.916Z,80.90
2019-03-17T02:27:35.838Z,80.80
2019-03-17T02:30:07.038Z,80.60
2019-03-17T02:32:36.201Z,80.40
2019-03-17T02:35:06.201Z,80.60
2019-03-17T02:37:35.119Z,81.10
2019-03-17T02:40:05.843Z,80.70
2019-03-17T02:42:34.883Z,80.60
2019-03-17T02:45:04.284Z,80.50
2019-03-17T02:47:33.323Z,80.40
2019-03-17T02:50:05.131Z,80.80
2019-03-17T02:52:34.170Z,81.10
2019-03-17T02:55:03.092Z,80.90
2019-03-17T02:57:32.012Z,80.70
2019-03-17T03:00:01.418Z,80.20
2019-03-17T03:02:30.335Z,79.20
2019-03-17T03:05:00.628Z,79.30
2019-03-17T03:07:29.619Z,79.10
2019-03-17T03:09:58.540Z,78.80
2019-03-17T03:12:27.583Z,79.10
2019-03-17T03:14:56.628Z,79.10
2019-03-17T03:17:25.424Z,79.60
2019-03-17T03:19:54.235Z,79.60
2019-03-17T03:22:23.280Z,79.90
2019-03-17T03:24:52.196Z,80.00
2019-03-17T03:27:21.237Z,80.40
2019-03-17T03:29:50.159Z,80.60
2019-03-17T03:32:19.077Z,80.60
2019-03-17T03:34:47.997Z,81.00
2019-03-17T03:37:17.175Z,82.20
2019-03-17T03:39:45.838Z,81.40
2019-03-17T03:42:14.880Z,81.40
2019-03-17T03:44:43.930Z,81.50
2019-03-17T03:47:12.845Z,81.90
2019-03-17T03:49:41.776Z,81.90
2019-03-17T03:52:11.168Z,82.20
2019-03-17T03:54:40.092Z,81.80
2019-03-17T03:57:08.892Z,81.90
2019-03-17T03:59:37.934Z,80.90
2019-03-17T04:02:06.632Z,80.20
2019-03-17T04:04:35.655Z,80.90
2019-03-17T04:07:04.337Z,80.40
2019-03-17T04:09:33.497Z,80.10
2019-03-17T04:12:02.179Z,80.10
2019-03-17T04:14:30.981Z,80.40
2019-03-17T04:16:59.909Z,80.70
2019-03-17T04:19:28.825Z,80.60
2019-03-17T04:21:57.872Z,81.60
2019-03-17T04:24:26.912Z,81.30
2019-03-17T04:26:56.071Z,81.20
2019-03-17T04:29:25.233Z,81.40
2019-03-17T04:31:54.391Z,81.50
2019-03-17T04:34:23.194Z,81.70
2019-03-17T04:36:52.005Z,81.80
2019-03-17T04:39:21.040Z,81.60
2019-03-17T04:41:49.847Z,81.70
2019-03-17T04:44:21.163Z,81.70
2019-03-17T04:46:49.602Z,81.30
2019-03-17T04:49:18.647Z,81.10
2019-03-17T04:51:47.448Z,81.20
2019-03-17T04:54:16.246Z,81.60
2019-03-17T04:56:45.170Z,81.00
2019-03-17T04:59:14.210Z,81.40
2019-03-17T05:01:43.373Z,81.20
2019-03-17T05:04:12.172Z,81.20
2019-03-17T05:06:52.097Z,81.40
2019-03-17T05:09:11.814Z,81.10
2019-03-17T05:11:40.978Z,81.10
2019-03-17T05:14:09.779Z,81.30
2019-03-17T05:16:38.579Z,81.70
2019-03-17T05:19:07.505Z,81.90
2019-03-17T05:21:36.433Z,81.50
2019-03-17T05:24:05.466Z,81.40
2019-03-17T05:26:34.267Z,81.30
2019-03-17T05:29:03.312Z,81.70
2019-03-17T05:31:32.610Z,81.00
2019-03-17T05:34:01.878Z,81.00
2019-03-17T05:36:30.792Z,81.00
2019-03-17T05:39:00.074Z,80.70
2019-03-17T05:41:28.876Z,80.80
2019-03-17T05:43:57.918Z,79.80
2019-03-17T05:46:26.959Z,80.10
2019-03-17T05:48:55.774Z,79.20
2019-03-17T05:51:24.924Z,79.70
2019-03-17T05:53:53.845Z,78.90
2019-03-17T05:56:23.005Z,80.00
2019-03-17T05:58:52.045Z,78.90
2019-03-17T06:01:21.086Z,79.60
2019-03-17T06:03:49.901Z,79.40
2019-03-17T06:06:19.173Z,80.20
2019-03-17T06:08:48.214Z,80.70
2019-03-17T06:11:17.256Z,81.10
2019-03-17T06:13:46.295Z,81.70
2019-03-17T06:16:15.338Z,81.90
2019-03-17T06:18:44.385Z,81.80
2019-03-17T06:21:13.182Z,82.30
2019-03-17T06:23:42.231Z,82.60
2019-03-17T06:26:11.396Z,82.60
2019-03-17T06:28:40.673Z,82.70
2019-03-17T06:31:09.593Z,81.80
2019-03-17T06:33:38.755Z,82.30
2019-03-17T06:36:07.908Z,81.30
2019-03-17T06:38:37.077Z,82.20
2019-03-17T06:41:06.245Z,81.70
2019-03-17T06:43:35.521Z,81.80
2019-03-17T06:46:04.436Z,81.60
2019-03-17T06:48:33.723Z,81.20
2019-03-17T06:51:02.647Z,80.60
2019-03-17T06:53:31.572Z,81.00
2019-03-17T06:56:00.371Z,81.10
2019-03-17T06:58:29.284Z,81.20
2019-03-17T07:00:57.969Z,81.80
2019-03-17T07:03:27.013Z,80.80
2019-03-17T07:05:56.291Z,81.00
2019-03-17T07:08:25.340Z,80.90
2019-03-17T07:10:54.374Z,81.30
2019-03-17T07:13:23.296Z,81.00
2019-03-17T07:15:52.095Z,81.00
2019-03-17T07:18:20.898Z,80.80
2019-03-17T07:20:49.816Z,80.30
2019-03-17T07:23:18.620Z,81.60
2019-03-17T07:25:47.662Z,82.00
2019-03-17T07:28:16.468Z,83.60
2019-03-17T07:30:45.269Z,84.70
2019-03-17T07:33:14.308Z,85.20
2019-03-17T07:35:46.274Z,86.40
2019-03-17T07:38:14.309Z,87.20
2019-03-17T07:40:43.359Z,87.60
2019-03-17T07:43:13.240Z,87.00
2019-03-17T07:45:42.519Z,87.30
2019-03-17T07:48:11.313Z,87.50
2019-03-17T07:50:40.478Z,87.10
2019-03-17T07:53:09.517Z,87.80
2019-03-17T07:55:38.575Z,88.70
2019-03-17T07:58:07.842Z,89.00
2019-03-17T08:00:36.763Z,90.00
2019-03-17T08:03:05.806Z,89.40
2019-03-17T08:05:34.965Z,90.00
2019-03-17T08:08:09.530Z,89.60
2019-03-17T08:10:35.447Z,90.40
2019-03-17T08:13:04.491Z,90.40
2019-03-17T08:15:33.546Z,90.60
2019-03-17T08:18:02.698Z,90.40
2019-03-17T08:20:31.745Z,90.20
2019-03-17T08:23:00.786Z,90.20
2019-03-17T08:25:29.940Z,90.50
2019-03-17T08:27:59.340Z,91.10
2019-03-17T08:30:28.382Z,91.30
2019-03-17T08:32:57.545Z,91.30
2019-03-17T08:35:26.596Z,91.40
2019-03-17T08:37:55.749Z,91.50
2019-03-17T08:40:24.789Z,91.80
2019-03-17T08:42:53.717Z,92.00
2019-03-17T08:45:22.632Z,92.00
2019-03-17T08:47:58.044Z,91.80
2019-03-17T08:50:22.521Z,92.10
2019-03-17T08:52:51.572Z,92.10
2019-03-17T08:55:20.717Z,92.50
2019-03-17T08:57:49.879Z,92.20
2019-03-17T09:00:20.002Z,92.60
2019-03-17T09:02:48.930Z,92.30
2019-03-17T09:05:17.725Z,91.40
2019-03-17T09:07:46.654Z,91.50
2019-03-17T09:10:16.306Z,91.40
2019-03-17T09:12:45.331Z,91.80
2019-03-17T09:15:14.137Z,90.20
2019-03-17T09:17:43.057Z,90.10
2019-03-17T09:20:18.575Z,91.00
2019-03-17T09:22:47.283Z,91.50
2019-03-17T09:25:16.056Z,91.10
2019-03-17T09:27:44.867Z,88.90
2019-03-17T09:30:17.380Z,89.70
2019-03-17T09:32:46.186Z,88.00
2019-03-17T09:35:15.352Z,88.40
2019-03-17T09:37:44.273Z,90.00
2019-03-17T09:40:14.270Z,90.20
2019-03-17T09:42:43.329Z,90.40
2019-03-17T09:45:13.557Z,90.60
2019-03-17T09:47:42.472Z,91.10
2019-03-17T09:50:15.476Z,90.70
2019-03-17T09:52:44.396Z,90.80
2019-03-17T09:55:13.557Z,90.70
2019-03-17T09:57:42.479Z,91.20
2019-03-17T10:00:16.560Z,91.70
2019-03-17T10:02:45.482Z,91.80
2019-03-17T10:05:14.761Z,91.00
2019-03-17T10:07:43.564Z,90.50
2019-03-17T10:10:15.364Z,90.90
2019-03-17T10:12:44.296Z,90.90
2019-03-17T10:15:14.773Z,90.90
2019-03-17T10:17:43.814Z,90.90
2019-03-17T10:20:15.130Z,90.90
2019-03-17T10:22:44.053Z,91.20
2019-03-17T10:25:13.454Z,91.30
2019-03-17T10:27:42.375Z,91.30
2019-03-17T10:30:14.177Z,91.10
2019-03-17T10:32:42.864Z,91.50
2019-03-17T10:35:11.780Z,91.10
2019-03-17T10:37:40.467Z,91.40
2019-03-17T10:40:18.027Z,91.20
2019-03-17T10:42:46.831Z,91.40
2019-03-17T10:45:15.884Z,90.90
2019-03-17T10:47:44.789Z,91.60
2019-03-17T10:50:16.711Z,91.50
2019-03-17T10:52:45.527Z,90.90
2019-03-17T10:55:14.566Z,91.00
2019-03-17T10:57:43.476Z,90.60
2019-03-17T11:00:16.716Z,90.60
2019-03-17T11:02:45.527Z,91.00
2019-03-17T11:05:14.564Z,91.40
2019-03-17T11:07:43.491Z,91.00
2019-03-17T11:10:13.248Z,91.30
2019-03-17T11:12:42.043Z,90.00
2019-03-17T11:15:13.846Z,90.50
2019-03-17T11:17:42.650Z,91.20
2019-03-17T11:20:12.889Z,90.20
2019-03-17T11:22:41.692Z,89.10
2019-03-17T11:25:17.334Z,89.70
2019-03-17T11:27:46.256Z,89.10
2019-03-17T11:30:16.023Z,88.20
2019-03-17T11:32:44.941Z,90.10
2019-03-17T11:35:13.860Z,89.40
2019-03-17T11:37:42.784Z,90.00
2019-03-17T11:40:18.425Z,89.40
2019-03-17T11:42:49.660Z,88.10
2019-03-17T11:45:17.950Z,87.90
2019-03-17T11:47:46.748Z,87.10
2019-03-17T11:50:19.749Z,87.10
2019-03-17T11:52:48.791Z,87.30
2019-03-17T11:55:17.712Z,87.10
2019-03-17T11:57:46.759Z,83.60
2019-03-17T12:00:20.365Z,85.30
2019-03-17T12:02:49.394Z,80.10
2019-03-17T12:05:18.081Z,78.70
2019-03-17T12:07:47.124Z,78.20
2019-03-17T12:10:17.361Z,79.50
2019-03-17T12:12:46.049Z,78.90
2019-03-17T12:15:19.765Z,81.20
2019-03-17T12:17:48.455Z,80.10
2019-03-17T12:20:17.258Z,80.60
2019-03-17T12:22:46.185Z,82.80
2019-03-17T12:25:15.942Z,82.40
2019-03-17T12:27:44.853Z,80.90
2019-03-17T12:30:24.456Z,77.00
2019-03-17T12:32:54.215Z,76.20
2019-03-17T12:35:23.274Z,78.30
2019-03-17T12:37:52.071Z,76.30
2019-03-17T12:40:20.859Z,76.70
2019-03-17T12:42:49.661Z,76.30
2019-03-17T12:45:18.583Z,76.10
2019-03-17T12:47:47.267Z,72.40
2019-03-17T12:50:17.515Z,68.40
2019-03-17T12:52:46.197Z,70.40
2019-03-17T12:55:15.110Z,69.10
2019-03-17T12:57:44.030Z,67.30
2019-03-17T13:00:14.875Z,69.00
2019-03-17T13:02:43.799Z,74.60
2019-03-17T13:05:14.517Z,73.80
2019-03-17T13:07:43.439Z,74.10
2019-03-17T13:10:22.799Z,74.40
2019-03-17T13:12:51.723Z,72.10
2019-03-17T13:15:20.644Z,72.00
2019-03-17T13:17:49.562Z,70.50
2019-03-17T13:20:21.725Z,68.10
2019-03-17T13:22:50.646Z,65.30
2019-03-17T13:25:19.451Z,65.00
2019-03-17T13:27:49.211Z,59.00
2019-03-17T13:30:18.861Z,59.30
2019-03-17T13:32:47.535Z,62.20
2019-03-17T13:35:16.579Z,64.20
2019-03-17T13:37:45.496Z,64.00
2019-03-17T13:40:28.808Z,62.60
2019-03-17T13:42:49.705Z,61.50
2019-03-17T13:45:18.623Z,61.50
2019-03-17T13:47:47.425Z,62.10
2019-03-17T13:50:20.186Z,63.60
2019-03-17T13:52:49.123Z,60.40
2019-03-17T13:55:18.028Z,59.00
2019-03-17T13:58:04.228Z,62.30
2019-03-17T14:00:33.042Z,65.80
2019-03-17T14:03:01.832Z,67.00
2019-03-17T14:05:30.760Z,68.40
2019-03-17T14:07:59.675Z,72.10
2019-03-17T14:10:39.975Z,73.80
2019-03-17T14:12:58.966Z,77.30
2019-03-17T14:15:27.765Z,81.00
2019-03-17T14:17:56.683Z,81.10
2019-03-17T14:20:25.510Z,84.00
2019-03-17T14:22:54.405Z,85.40
2019-03-17T14:25:31.392Z,83.30
2019-03-17T14:28:00.530Z,79.40
2019-03-17T14:30:29.330Z,77.50
2019-03-17T14:32:58.011Z,78.20
2019-03-17T14:35:26.939Z,80.50
2019-03-17T14:37:55.736Z,82.30
2019-03-17T14:40:24.667Z,82.90
2019-03-17T14:42:55.545Z,83.30
2019-03-17T14:45:24.062Z,83.00
2019-03-17T14:47:52.867Z,86.70
2019-03-17T14:50:22.866Z,85.10
2019-03-17T14:52:51.665Z,88.00
2019-03-17T14:55:20.589Z,88.30
2019-03-17T14:57:49.515Z,88.70
2019-03-17T15:00:24.790Z,89.90
2019-03-17T15:02:53.721Z,89.70
2019-03-17T15:05:25.255Z,90.00
2019-03-17T15:07:53.005Z,89.90
2019-03-17T15:10:23.120Z,90.00
2019-03-17T15:12:52.521Z,89.00
2019-03-17T15:15:22.160Z,87.60
2019-03-17T15:17:51.086Z,86.90
2019-03-17T15:20:27.212Z,84.00
2019-03-17T15:22:56.247Z,81.50
2019-03-17T15:25:25.883Z,75.50
2019-03-17T15:27:54.694Z,72.60
2019-03-17T15:30:26.138Z,71.10
2019-03-17T15:32:55.055Z,66.70
2019-03-17T15:35:23.850Z,65.60
2019-03-17T15:37:52.776Z,68.10
2019-03-17T15:40:22.298Z,67.30
2019-03-17T15:42:51.221Z,67.40
2019-03-17T15:45:26.263Z,69.70
2019-03-17T15:47:55.179Z,68.40
2019-03-17T15:50:28.902Z,69.80
2019-03-17T15:52:57.702Z,67.00
2019-03-17T15:55:26.625Z,63.20
2019-03-17T15:57:55.425Z,63.00
2019-03-17T16:00:26.601Z,64.60
2019-03-17T16:02:55.696Z,66.40
2019-03-17T16:05:24.590Z,71.00
2019-03-17T16:07:53.392Z,73.70
2019-03-17T16:10:29.156Z,73.60
2019-03-17T16:12:57.961Z,75.20
2019-03-17T16:15:26.877Z,77.40
2019-03-17T16:17:55.799Z,79.40
2019-03-17T16:20:25.438Z,80.20
2019-03-17T16:22:54.249Z,80.80
2019-03-17T16:25:25.085Z,79.30
2019-03-17T16:27:54.007Z,79.90
2019-03-17T16:30:30.728Z,78.80
2019-03-17T16:32:59.654Z,77.80
2019-03-17T16:35:28.571Z,77.40
2019-03-17T16:37:57.491Z,77.30
2019-03-17T16:40:28.454Z,77.20
2019-03-17T16:42:57.374Z,77.60
2019-03-17T16:45:26.303Z,76.80
2019-03-17T16:47:55.222Z,76.60
2019-03-17T16:50:24.394Z,76.10
2019-03-17T16:52:53.188Z,76.90
2019-03-17T16:55:22.105Z,75.30
2019-03-17T16:57:51.031Z,76.30
2019-03-17T17:00:23.666Z,76.10
2019-03-17T17:02:52.589Z,75.80
2019-03-17T17:05:22.597Z,75.50
2019-03-17T17:07:51.512Z,76.00
2019-03-17T17:10:22.114Z,77.00
2019-03-17T17:12:51.038Z,76.00
2019-03-17T17:15:23.077Z,75.90
2019-03-17T17:17:51.878Z,76.20
2019-03-17T17:20:29.082Z,76.90
2019-03-17T17:22:58.005Z,78.40
2019-03-17T17:25:26.920Z,79.10
2019-03-17T17:27:55.729Z,79.60
2019-03-17T17:30:24.643Z,80.60
2019-03-17T17:32:53.586Z,81.80
2019-03-17T17:35:22.494Z,81.70
2019-03-17T17:37:51.409Z,81.70
2019-03-17T17:40:21.290Z,82.80
2019-03-17T17:42:50.094Z,83.90
2019-03-17T17:45:26.338Z,84.40
2019-03-17T17:47:55.757Z,85.40
2019-03-17T17:50:26.339Z,85.70
2019-03-17T17:52:55.260Z,85.90
2019-03-17T17:55:23.940Z,86.00
2019-03-17T17:57:53.365Z,86.90
2019-03-17T18:00:32.711Z,87.40
2019-03-17T18:03:01.623Z,87.60
2019-03-17T18:05:30.428Z,88.40
2019-03-17T18:07:59.354Z,88.40
2019-03-17T18:10:28.632Z,88.70
2019-03-17T18:12:57.437Z,89.10
2019-03-17T18:15:31.158Z,89.10
2019-03-17T18:17:59.836Z,89.40
2019-03-17T18:20:28.788Z,89.70
2019-03-17T18:22:57.691Z,88.90
2019-03-17T18:25:26.603Z,89.10
2019-03-17T18:27:55.525Z,89.70
2019-03-17T18:30:27.575Z,89.50
2019-03-17T18:32:56.605Z,89.60
2019-03-17T18:35:25.559Z,89.20
2019-03-17T18:37:54.719Z,89.10
2019-03-17T18:40:23.728Z,89.50
2019-03-17T18:42:52.650Z,89.30
2019-03-17T18:45:27.330Z,89.50
2019-03-17T18:47:57.650Z,89.90
2019-03-17T18:50:26.866Z,90.10
2019-03-17T18:52:55.536Z,90.20
2019-03-17T18:55:24.224Z,90.20
2019-03-17T18:57:53.158Z,90.10
2019-03-17T19:00:23.268Z,90.00
2019-03-17T19:02:52.184Z,90.10
2019-03-17T19:05:21.107Z,89.80
2019-03-17T19:07:49.986Z,90.00
2019-03-17T19:10:20.149Z,90.10
2019-03-17T19:12:49.431Z,90.10
2019-03-17T19:15:22.193Z,90.00
2019-03-17T19:17:51.115Z,89.60
2019-03-17T19:20:20.756Z,89.70
2019-03-17T19:22:49.919Z,89.50
2019-03-17T19:25:24.006Z,89.20
2019-03-17T19:27:54.240Z,89.20
2019-03-17T19:30:23.644Z,89.00
2019-03-17T19:32:52.441Z,88.50
2019-03-17T19:35:21.250Z,88.50
2019-03-17T19:37:50.297Z,88.50
2019-03-17T19:40:19.930Z,88.50
2019-03-17T19:42:58.076Z,88.50
2019-03-17T19:45:19.100Z,88.80
2019-03-17T19:47:47.898Z,88.90
2019-03-17T19:50:18.142Z,89.10
2019-03-17T19:52:47.199Z,89.00
2019-03-17T19:55:16.456Z,88.80
2019-03-17T19:57:45.379Z,88.90
2019-03-17T20:00:16.822Z,88.00
2019-03-17T20:02:47.640Z,87.70
2019-03-17T20:05:16.618Z,88.50
2019-03-17T20:07:45.636Z,87.90
2019-03-17T20:10:26.067Z,87.80
2019-03-17T20:12:54.988Z,87.80
2019-03-17T20:15:24.272Z,87.00
2019-03-17T20:17:53.314Z,87.10
2019-03-17T20:20:22.117Z,87.10
2019-03-17T20:22:50.911Z,87.50
2019-03-17T20:25:19.853Z,86.90
2019-03-17T20:27:48.640Z,87.10
2019-03-17T20:30:18.277Z,87.30
2019-03-17T20:32:47.213Z,87.40
2019-03-17T20:35:16.021Z,87.60
2019-03-17T20:37:45.284Z,87.30
2019-03-17T20:40:16.144Z,87.20
2019-03-17T20:42:44.931Z,87.40
2019-03-17T20:45:14.999Z,87.50
2019-03-17T20:47:43.849Z,87.50
2019-03-17T20:50:16.617Z,87.60
2019-03-17T20:52:45.290Z,87.90
2019-03-17T20:55:14.454Z,87.80
2019-03-17T20:57:43.503Z,87.90
2019-03-17T21:00:14.341Z,87.60
2019-03-17T21:02:43.382Z,88.10
2019-03-17T21:05:12.903Z,87.50
2019-03-17T21:07:42.662Z,87.80
2019-03-17T21:10:13.022Z,87.90
2019-03-17T21:12:42.207Z,87.60
2019-03-17T21:15:18.427Z,88.00
2019-03-17T21:17:47.468Z,87.80
2019-03-17T21:20:22.158Z,88.10
2019-03-17T21:22:50.954Z,87.70
2019-03-17T21:25:19.992Z,87.90
2019-03-17T21:27:49.044Z,87.90
2019-03-17T21:30:23.116Z,88.00
2019-03-17T21:32:52.281Z,88.30
2019-03-17T21:35:21.439Z,88.40
2019-03-17T21:37:50.368Z,88.40
2019-03-17T21:40:19.773Z,88.80
2019-03-17T21:42:48.925Z,88.60
2019-03-17T21:45:17.978Z,88.70
2019-03-17T21:47:47.253Z,89.10
2019-03-17T21:50:21.089Z,89.20
2019-03-17T21:52:50.258Z,89.40
2019-03-17T21:55:19.418Z,89.70
2019-03-17T21:57:48.456Z,89.80
2019-03-17T22:00:20.494Z,89.90
2019-03-17T22:02:49.664Z,90.00
2019-03-17T22:05:18.696Z,90.00
2019-03-17T22:07:50.808Z,90.00
2019-03-17T22:10:21.989Z,90.10
2019-03-17T22:12:50.983Z,90.10
2019-03-17T22:15:20.026Z,90.20
2019-03-17T22:17:48.945Z,90.20
2019-03-17T22:20:17.999Z,90.10
2019-03-17T22:22:46.911Z,90.10
2019-03-17T22:25:16.570Z,90.10
2019-03-17T22:27:45.592Z,90.10
2019-03-17T22:30:21.717Z,90.00
2019-03-17T22:32:50.879Z,90.00
2019-03-17T22:35:19.916Z,90.10
2019-03-17T22:37:48.842Z,90.10
2019-03-17T22:40:18.722Z,90.10
2019-03-17T22:42:47.903Z,90.10
2019-03-17T22:45:17.055Z,90.10
2019-03-17T22:47:45.975Z,90.10
2019-03-17T22:50:18.363Z,90.10
2019-03-17T22:52:47.527Z,90.10
2019-03-17T22:55:16.573Z,90.20
2019-03-17T22:57:45.976Z,90.30
2019-03-17T23:00:36.251Z,90.20
2019-03-17T23:03:05.903Z,90.30
2019-03-17T23:05:34.817Z,90.00
2019-03-17T23:08:04.098Z,90.10
2019-03-17T23:10:33.265Z,90.20
2019-03-17T23:13:01.940Z,90.10
2019-03-17T23:15:30.860Z,90.20
2019-03-17T23:17:59.902Z,90.40
2019-03-17T23:20:29.068Z,90.40
2019-03-17T23:22:57.868Z,90.40
2019-03-17T23:25:27.029Z,90.50
2019-03-17T23:27:58.119Z,90.50
2019-03-17T23:30:27.030Z,90.50
2019-03-17T23:32:56.314Z,90.50
2019-03-17T23:35:25.242Z,90.40
2019-03-17T23:37:54.276Z,90.40
2019-03-17T23:40:23.077Z,90.30
2019-03-17T23:42:52.126Z,90.30
2019-03-17T23:45:22.001Z,90.50
2019-03-17T23:47:51.045Z,90.50
2019-03-17T23:50:19.971Z,90.60
2019-03-17T23:52:49.006Z,90.70
2019-03-17T23:55:17.690Z,90.50
2019-03-17T23:57:46.728Z,90.30
